Time;durP1;ratioP1;P1;durP2;ratioP2;P2;SDS_P1;SDS_P2;PMS_P1;PMS_P2;Temp;Humidity;BMP_temperature;BMP_pressure;BME280_temperature;BME280_humidity;BME280_pressure;Samples;Min_cycle;Max_cycle;Signal;HPM_P1;HPM_P2
2021/12/07 00:01:46;;;;;;;23.13;13.18;;;2.50;99.90;;;;;;5001349;28;20086;-73
2021/12/07 00:04:12;;;;;;;21.15;12.55;;;2.30;99.90;;;;;;5003323;28;20043;-73
2021/12/07 00:06:39;;;;;;;23.00;12.75;;;3.30;99.90;;;;;;4974034;28;20060;-73
2021/12/07 00:09:08;;;;;;;24.58;15.00;;;3.30;99.90;;;;;;4975404;28;20082;-73
2021/12/07 00:11:35;;;;;;;26.80;15.73;;;2.40;99.90;;;;;;4993934;28;20042;-72
2021/12/07 00:14:10;;;;;;;27.13;15.70;;;2.20;99.90;;;;;;4978764;28;20390;-72
2021/12/07 00:16:36;;;;;;;;;;;3.20;99.90;;;;;;4960518;28;20050;-72
2021/12/07 00:19:02;;;;;;;26.27;15.25;;;2.90;99.90;;;;;;5048075;28;19918;-72
2021/12/07 00:21:28;;;;;;;25.10;15.85;;;2.40;99.90;;;;;;4963020;28;20359;-72
2021/12/07 00:23:54;;;;;;;22.95;13.48;;;2.00;99.90;;;;;;4969329;28;20053;-73
2021/12/07 00:26:20;;;;;;;30.23;17.30;;;2.30;99.90;;;;;;4965971;28;20049;-72
2021/12/07 00:28:47;;;;;;;29.50;16.80;;;2.70;99.90;;;;;;4996409;28;20042;-72
2021/12/07 00:31:22;;;;;;;29.88;16.08;;;3.50;99.90;;;;;;4968982;28;20498;-72
2021/12/07 00:33:54;;;;;;;;;;;3.00;99.90;;;;;;4968584;28;20047;-73
2021/12/07 00:36:20;;;;;;;27.95;15.98;;;3.10;99.90;;;;;;4994234;28;19922;-73
2021/12/07 00:38:47;;;;;;;22.88;12.43;;;2.50;99.90;;;;;;4965969;28;20399;-73
2021/12/07 00:41:12;;;;;;;27.02;14.60;;;1.80;99.90;;;;;;4986466;28;20061;-73
2021/12/07 00:43:38;;;;;;;29.73;14.73;;;3.10;99.90;;;;;;4966078;28;20396;-73
2021/12/07 00:46:04;;;;;;;28.23;14.80;;;1.80;99.90;;;;;;4968842;28;20049;-74
2021/12/07 00:48:31;;;;;;;24.48;13.27;;;2.90;99.90;;;;;;4952986;28;20047;-73
2021/12/07 00:50:57;;;;;;;23.00;12.10;;;1.80;99.90;;;;;;4968263;28;20038;-73
2021/12/07 00:53:25;;;;;;;23.10;13.15;;;2.60;99.90;;;;;;4963919;28;20504;-72
2021/12/07 00:55:56;;;;;;;23.15;12.57;;;2.20;99.90;;;;;;4965597;28;20047;-72
2021/12/07 00:58:24;;;;;;;20.15;11.68;;;2.10;99.90;;;;;;4953229;28;20121;-73
2021/12/07 01:01:03;;;;;;;26.10;14.68;;;1.70;99.90;;;;;;4969376;28;20031;-73
2021/12/07 01:03:30;;;;;;;26.13;14.85;;;2.90;99.90;;;;;;4969708;28;20048;-73
2021/12/07 01:25:19;;;;;;;24.38;13.60;;;2.50;99.90;;;;;;4962720;28;20112;-72
2021/12/07 01:27:48;;;;;;;23.83;13.38;;;1.60;99.90;;;;;;4972373;28;20042;-72
2021/12/07 01:30:32;;;;;;;26.95;14.85;;;1.50;99.90;;;;;;4963266;28;20508;-73
2021/12/07 01:46:45;;;;;;;24.05;13.57;;;2.30;99.90;;;;;;4943824;28;20480;-72
2021/12/07 01:59:57;;;;;;;26.13;13.95;;;2.40;99.90;;;;;;4934152;28;20114;-74
2021/12/07 02:02:25;;;;;;;21.38;12.52;;;2.10;99.90;;;;;;4948162;28;20502;-74
2021/12/07 02:04:52;;;;;;;30.85;16.05;;;2.00;99.90;;;;;;4941116;29;20101;-72
2021/12/07 02:07:18;;;;;;;25.15;14.35;;;1.70;99.90;;;;;;4936195;28;20054;-73
2021/12/07 02:09:48;;;;;;;24.23;13.55;;;1.60;99.90;;;;;;4921756;28;20403;-73
2021/12/07 02:12:14;;;;;;;22.15;11.75;;;2.40;99.90;;;;;;4942190;28;20078;-73
2021/12/07 02:14:41;;;;;;;28.92;14.95;;;2.10;99.90;;;;;;4948396;28;20062;-73
2021/12/07 02:17:12;;;;;;;22.42;12.77;;;3.00;99.90;;;;;;4944867;28;20066;-73
2021/12/07 02:19:40;;;;;;;31.33;16.90;;;0.90;99.90;;;;;;4947192;28;20046;-74
2021/12/07 02:22:06;;;;;;;27.92;14.77;;;2.40;99.90;;;;;;4932452;28;20159;-73
2021/12/07 02:24:33;;;;;;;26.63;14.80;;;1.10;99.90;;;;;;4947719;28;20036;-73
2021/12/07 02:26:59;;;;;;;32.60;17.75;;;2.20;99.90;;;;;;4960792;28;20072;-73
2021/12/07 02:29:25;;;;;;;29.90;15.40;;;1.20;99.90;;;;;;5037470;28;20045;-73
2021/12/07 02:31:52;;;;;;;25.95;14.45;;;1.80;99.90;;;;;;5002828;28;20065;-72
2021/12/07 02:34:20;;;;;;;23.15;13.75;;;2.50;99.90;;;;;;5058721;28;20057;-73
2021/12/07 02:36:46;;;;;;;24.98;14.25;;;2.40;99.90;;;;;;4967716;28;20122;-73
2021/12/07 02:39:13;;;;;;;19.25;11.60;;;2.30;99.90;;;;;;4952010;28;20165;-73
2021/12/07 02:41:40;;;;;;;18.88;10.68;;;2.60;99.90;;;;;;4952927;28;20132;-73
2021/12/07 02:44:06;;;;;;;19.17;11.45;;;1.10;99.90;;;;;;4961724;28;20042;-73
2021/12/07 02:46:34;;;;;;;22.42;12.60;;;1.30;99.90;;;;;;4954571;28;20043;-73
2021/12/07 02:49:00;;;;;;;23.95;14.27;;;1.30;99.90;;;;;;4966379;28;20053;-73
2021/12/07 02:51:26;;;;;;;23.15;13.43;;;2.70;99.90;;;;;;4953055;28;20084;-73
2021/12/07 02:53:54;;;;;;;18.15;11.00;;;1.30;99.90;;;;;;4971344;28;20153;-73
2021/12/07 02:56:19;;;;;;;17.55;10.65;;;2.80;99.90;;;;;;4953838;28;20522;-73
2021/12/07 02:58:45;;;;;;;17.23;10.38;;;2.20;99.90;;;;;;4994439;28;20122;-73
2021/12/07 03:01:19;;;;;;;21.50;11.25;;;2.60;99.90;;;;;;4991237;28;20038;-73
2021/12/07 03:06:41;;;;;;;23.70;13.18;;;2.70;99.90;;;;;;4973009;28;20515;-71
2021/12/07 03:28:10;;;;;;;25.90;14.43;;;2.50;99.90;;;;;;4951851;28;20035;-72
2021/12/07 03:30:37;;;;;;;19.13;11.05;;;1.70;99.90;;;;;;4945784;28;20098;-72
2021/12/07 03:33:04;;;;;;;21.73;13.43;;;2.50;99.90;;;;;;4976595;28;20456;-72
2021/12/07 03:35:30;;;;;;;17.13;9.23;;;1.50;99.90;;;;;;4941801;28;20043;-72
2021/12/07 03:37:56;;;;;;;17.90;11.65;;;2.20;99.90;;;;;;5008632;28;20434;-72
2021/12/07 03:40:22;;;;;;;20.00;11.25;;;1.90;99.90;;;;;;4947265;28;20047;-72
2021/12/07 03:42:48;;;;;;;24.90;15.30;;;1.90;99.90;;;;;;4965081;28;20369;-72
2021/12/07 03:45:15;;;;;;;23.90;13.68;;;3.00;99.90;;;;;;4982195;28;20043;-72
2021/12/07 03:47:41;;;;;;;28.92;15.38;;;3.00;99.90;;;;;;4932750;28;20043;-72
2021/12/07 03:50:09;;;;;;;21.88;13.15;;;1.90;99.90;;;;;;4948427;28;20443;-72
2021/12/07 03:52:34;;;;;;;24.85;13.85;;;1.70;99.90;;;;;;4932280;29;20392;-72
2021/12/07 03:55:01;;;;;;;23.33;13.93;;;2.30;99.90;;;;;;4941503;28;20047;-72
2021/12/07 03:57:27;;;;;;;27.30;14.88;;;1.90;99.90;;;;;;4949801;28;20051;-72
2021/12/07 03:59:52;;;;;;;32.63;16.95;;;2.60;99.90;;;;;;4940336;28;20384;-72
2021/12/07 04:02:18;;;;;;;30.80;15.13;;;2.10;99.90;;;;;;4946763;28;20047;-72
2021/12/07 04:04:44;;;;;;;27.55;15.02;;;1.40;99.90;;;;;;4932834;28;20047;-72
2021/12/07 04:07:09;;;;;;;33.42;16.73;;;3.00;99.90;;;;;;4949799;28;20046;-72
2021/12/07 04:09:35;;;;;;;26.67;14.50;;;3.00;99.90;;;;;;4949232;28;20121;-72
2021/12/07 04:12:01;;;;;;;32.88;17.20;;;3.40;99.90;;;;;;4937745;28;20059;-72
2021/12/07 04:14:27;;;;;;;31.00;16.00;;;2.20;99.90;;;;;;4970154;28;20044;-72
2021/12/07 04:16:53;;;;;;;28.65;14.88;;;3.00;99.90;;;;;;4949793;28;20043;-72
2021/12/07 04:19:19;;;;;;;22.15;13.23;;;1.60;99.90;;;;;;4946113;28;20041;-72
2021/12/07 04:21:45;;;;;;;29.13;16.00;;;2.60;99.90;;;;;;4950858;28;20385;-72
2021/12/07 04:24:11;;;;;;;21.73;12.07;;;2.80;99.90;;;;;;4945273;28;20420;-72
2021/12/07 04:26:38;;;;;;;20.88;12.75;;;2.40;99.90;;;;;;4937151;28;20101;-72
2021/12/07 04:29:03;;;;;;;30.33;15.88;;;3.00;99.90;;;;;;4950165;28;20047;-72
2021/12/07 04:31:30;;;;;;;33.08;16.98;;;1.50;99.90;;;;;;4932459;28;20066;-73
2021/12/07 04:33:56;;;;;;;32.85;16.60;;;2.90;99.90;;;;;;4933906;28;20057;-72
2021/12/07 04:36:22;;;;;;;27.92;14.93;;;2.10;99.90;;;;;;4953263;28;20081;-72
2021/12/07 04:38:48;;;;;;;36.95;18.50;;;1.70;99.90;;;;;;4947871;28;20043;-72
2021/12/07 04:41:13;;;;;;;31.52;15.10;;;2.20;99.90;;;;;;4948026;28;20122;-72
2021/12/07 04:43:39;;;;;;;30.10;15.07;;;2.90;99.90;;;;;;4934282;28;20071;-73
2021/12/07 04:59:14;;;;;;;21.77;11.95;;;1.30;99.90;;;;;;4939947;28;20039;-72
2021/12/07 05:01:39;;;;;;;24.88;12.68;;;2.70;99.90;;;;;;4947076;28;20101;-73
2021/12/07 05:04:16;;;;;;;28.60;14.13;;;1.30;99.90;;;;;;4931640;28;20101;-73
2021/12/07 05:06:48;;;;;;;24.13;11.95;;;2.40;99.90;;;;;;4946475;28;20084;-73
2021/12/07 05:14:28;;;;;;;18.35;10.18;;;2.30;99.90;;;;;;4944883;28;20799;-73
2021/12/07 05:25:19;;;;;;;27.15;12.88;;;1.20;99.90;;;;;;4969714;28;20438;-73
2021/12/07 05:38:33;;;;;;;25.02;12.52;;;2.90;99.90;;;;;;4989300;28;20042;-74
2021/12/07 05:40:59;;;;;;;33.55;14.80;;;1.30;99.90;;;;;;4986515;28;20398;-74
2021/12/07 05:43:25;;;;;;;35.25;14.32;;;1.40;99.90;;;;;;4966671;28;20633;-73
2021/12/07 05:45:50;;;;;;;29.85;14.68;;;2.20;99.90;;;;;;5034315;28;20079;-73
2021/12/07 05:48:16;;;;;;;24.63;12.40;;;1.80;99.90;;;;;;5023847;28;20091;-73
2021/12/07 05:50:43;;;;;;;23.15;11.55;;;1.40;99.90;;;;;;4967513;28;20099;-71
2021/12/07 05:53:10;;;;;;;24.73;12.57;;;3.00;99.90;;;;;;4952739;28;20153;-72
2021/12/07 05:55:36;;;;;;;20.20;10.93;;;1.70;99.90;;;;;;5000656;28;20086;-72
2021/12/07 05:58:03;;;;;;;26.95;11.85;;;1.40;99.90;;;;;;5024628;28;20053;-72
2021/12/07 06:00:32;;;;;;;29.30;12.90;;;1.90;99.90;;;;;;4959835;28;20391;-72
2021/12/07 06:03:00;;;;;;;28.85;13.25;;;1.70;99.90;;;;;;4958294;28;20049;-71
2021/12/07 06:05:27;;;;;;;28.98;12.65;;;1.40;99.90;;;;;;4988521;28;20795;-72
2021/12/07 06:07:54;;;;;;;29.77;12.40;;;3.00;99.90;;;;;;4984531;28;20050;-72
2021/12/07 06:10:20;;;;;;;21.20;11.45;;;2.50;99.90;;;;;;4988604;28;20046;-72
2021/12/07 06:12:46;;;;;;;27.13;12.75;;;2.60;99.90;;;;;;4982828;28;20042;-72
2021/12/07 06:15:14;;;;;;;22.65;10.88;;;2.60;99.90;;;;;;4951958;28;20084;-72
2021/12/07 06:17:39;;;;;;;29.50;12.63;;;3.10;99.90;;;;;;4970927;28;20038;-72
2021/12/07 06:20:06;;;;;;;26.45;11.52;;;3.20;99.90;;;;;;4990995;28;20573;-71
2021/12/07 06:22:33;;;;;;;31.52;12.68;;;1.60;99.90;;;;;;4970270;28;20042;-72
2021/12/07 06:24:58;;;;;;;28.38;10.90;;;2.00;99.90;;;;;;4959464;28;20176;-71
2021/12/07 06:27:24;;;;;;;22.48;9.93;;;2.70;99.90;;;;;;5005992;28;20046;-72
2021/12/07 06:29:50;;;;;;;20.00;9.55;;;2.30;99.90;;;;;;4993904;28;20038;-72
2021/12/07 06:32:16;;;;;;;20.00;9.48;;;3.10;99.90;;;;;;4989601;28;20288;-73
2021/12/07 06:34:42;;;;;;;24.15;10.88;;;3.00;99.90;;;;;;4990304;28;20100;-73
2021/12/07 06:37:08;;;;;;;20.52;10.23;;;2.40;99.90;;;;;;5006868;28;20084;-73
2021/12/07 06:39:34;;;;;;;22.58;10.27;;;1.50;99.90;;;;;;4975657;28;20069;-72
2021/12/07 06:42:00;;;;;;;26.20;12.50;;;1.90;99.90;;;;;;4969736;28;20362;-72
2021/12/07 06:44:26;;;;;;;26.05;11.00;;;1.90;99.90;;;;;;4969064;28;20126;-73
2021/12/07 06:46:52;;;;;;;27.60;10.02;;;2.50;99.90;;;;;;4974667;28;20042;-73
2021/12/07 06:49:20;;;;;;;26.50;11.35;;;1.50;99.90;;;;;;4976874;28;20057;-73
2021/12/07 06:51:46;;;;;;;27.45;11.88;;;2.30;99.90;;;;;;4964653;28;20051;-73
2021/12/07 06:54:12;;;;;;;28.00;11.65;;;1.80;99.90;;;;;;4989399;28;20034;-74
2021/12/07 06:56:38;;;;;;;27.25;10.05;;;2.90;99.90;;;;;;4972265;28;20135;-71
2021/12/07 06:59:05;;;;;;;26.30;10.73;;;3.00;99.90;;;;;;4989883;28;20512;-71
2021/12/07 07:01:31;;;;;;;24.40;9.68;;;2.00;99.90;;;;;;4975792;28;20050;-72
2021/12/07 07:03:57;;;;;;;25.52;11.00;;;3.30;99.90;;;;;;4990919;28;20137;-71
2021/12/07 07:06:23;;;;;;;23.15;9.65;;;2.30;99.90;;;;;;4974890;28;20054;-72
2021/12/07 07:08:52;;;;;;;21.92;10.02;;;2.30;99.90;;;;;;4963452;28;20038;-71
2021/12/07 07:11:19;;;;;;;24.77;10.85;;;2.80;99.90;;;;;;4988359;28;20042;-72
2021/12/07 07:13:46;;;;;;;26.30;10.93;;;3.40;99.90;;;;;;5012879;28;20047;-73
2021/12/07 07:16:12;;;;;;;20.35;9.27;;;2.10;99.90;;;;;;4971882;28;20034;-74
2021/12/07 07:18:38;;;;;;;23.98;9.18;;;2.00;99.90;;;;;;4973755;28;20397;-74
2021/12/07 07:21:04;;;;;;;16.90;8.52;;;3.40;99.90;;;;;;4962690;28;20050;-72
2021/12/07 07:23:30;;;;;;;19.10;8.35;;;2.10;99.90;;;;;;4970086;28;20499;-73
2021/12/07 07:25:56;;;;;;;23.65;10.40;;;3.50;99.90;;;;;;4987148;28;20037;-73
2021/12/07 07:28:26;;;;;;;27.23;10.88;;;3.60;99.90;;;;;;5000050;28;20050;-73
2021/12/07 07:30:52;;;;;;;26.45;10.15;;;2.00;99.90;;;;;;4965667;28;20060;-72
2021/12/07 07:33:18;;;;;;;25.98;10.45;;;2.20;99.90;;;;;;4972386;28;20115;-73
2021/12/07 07:35:44;;;;;;;26.35;9.90;;;3.60;99.90;;;;;;4972925;28;20050;-73
2021/12/07 07:38:10;;;;;;;23.58;8.20;;;3.30;99.90;;;;;;4969840;28;20039;-73
2021/12/07 07:40:36;;;;;;;19.08;8.55;;;2.50;99.90;;;;;;4994940;28;20037;-73
2021/12/07 07:43:02;;;;;;;18.20;8.55;;;3.50;99.90;;;;;;5049709;28;20548;-73
2021/12/07 07:45:28;;;;;;;17.77;8.05;;;3.70;99.90;;;;;;5003583;28;20084;-73
2021/12/07 07:47:54;;;;;;;26.35;9.27;;;3.60;99.90;;;;;;4992590;28;20041;-73
2021/12/07 07:50:20;;;;;;;23.95;8.98;;;3.30;99.90;;;;;;5054350;28;20157;-73
2021/12/07 07:52:46;;;;;;;17.50;7.90;;;2.40;99.90;;;;;;5003896;28;20489;-74
2021/12/07 07:55:13;;;;;;;23.38;8.93;;;3.30;99.90;;;;;;4994085;28;20410;-73
2021/12/07 07:57:39;;;;;;;18.25;8.20;;;3.70;99.90;;;;;;4988748;28;20046;-75
2021/12/07 08:00:08;;;;;;;22.45;8.90;;;3.60;99.90;;;;;;4990828;28;20035;-74
2021/12/07 08:02:34;;;;;;;17.27;8.02;;;3.70;99.90;;;;;;4963562;28;20053;-72
2021/12/07 08:05:00;;;;;;;16.25;8.40;;;2.30;99.90;;;;;;4988202;28;20038;-73
2021/12/07 08:07:26;;;;;;;20.13;8.45;;;2.10;99.90;;;;;;4972973;28;20046;-73
2021/12/07 08:09:51;;;;;;;19.10;7.10;;;2.40;99.90;;;;;;4987092;28;20591;-73
2021/12/07 08:12:17;;;;;;;11.93;7.20;;;3.50;99.90;;;;;;4955394;28;20047;-73
2021/12/07 08:14:43;;;;;;;15.77;7.32;;;3.60;99.90;;;;;;5022537;28;20048;-73
2021/12/07 08:17:09;;;;;;;16.55;7.13;;;3.40;99.90;;;;;;4992105;28;20050;-73
2021/12/07 08:19:34;;;;;;;15.02;7.38;;;2.10;99.90;;;;;;4998277;28;20050;-73
2021/12/07 08:22:00;;;;;;;17.08;7.13;;;3.50;99.90;;;;;;4988613;28;20039;-73
2021/12/07 08:24:26;;;;;;;12.38;6.28;;;2.90;99.90;;;;;;5012262;28;20136;-73
2021/12/07 08:26:52;;;;;;;14.60;7.47;;;3.70;99.90;;;;;;4956706;28;20049;-77
2021/12/07 08:29:18;;;;;;;17.63;7.93;;;3.80;99.90;;;;;;5012752;28;20055;-73
2021/12/07 08:31:43;;;;;;;17.25;7.43;;;2.40;99.90;;;;;;4959212;28;20058;-73
2021/12/07 08:34:09;;;;;;;20.65;7.35;;;2.40;99.90;;;;;;4982120;28;20059;-76
2021/12/07 08:36:35;;;;;;;19.63;7.53;;;2.30;99.90;;;;;;4946795;28;20858;-73
2021/12/07 08:39:01;;;;;;;15.10;8.70;;;3.30;99.90;;;;;;4945412;28;20047;-75
2021/12/07 08:41:29;;;;;;;17.25;6.28;;;3.80;99.90;;;;;;4943612;28;20051;-73
2021/12/07 08:43:56;;;;;;;14.98;7.15;;;2.30;99.90;;;;;;4944723;28;20058;-73
2021/12/07 08:46:22;;;;;;;13.05;6.95;;;3.30;99.90;;;;;;4962702;28;20478;-74
2021/12/07 08:48:48;;;;;;;14.02;7.28;;;3.70;99.90;;;;;;4963037;28;20135;-75
2021/12/07 08:51:15;;;;;;;16.50;6.78;;;2.40;99.90;;;;;;4944697;28;20481;-73
2021/12/07 08:53:49;;;;;;;12.50;5.95;;;3.50;99.90;;;;;;4930091;28;20085;-74
2021/12/07 09:01:44;;;;;;;15.30;7.35;;;2.40;99.90;;;;;;4963176;28;20047;-74
2021/12/07 09:04:13;;;;;;;16.08;6.63;;;2.60;99.90;;;;;;4946410;28;20491;-73
2021/12/07 09:06:38;;;;;;;15.15;7.03;;;2.60;99.90;;;;;;4962552;28;20055;-73
2021/12/07 09:09:04;;;;;;;14.10;6.30;;;3.70;99.90;;;;;;4946143;28;20071;-74
2021/12/07 09:11:30;;;;;;;13.93;6.35;;;3.20;99.90;;;;;;4951977;28;20051;-75
2021/12/07 09:13:56;;;;;;;16.20;7.18;;;3.90;99.90;;;;;;5019936;28;20118;-72
2021/12/07 09:16:22;;;;;;;17.25;7.38;;;4.00;99.90;;;;;;5018501;28;20051;-72
2021/12/07 09:18:48;;;;;;;15.95;7.10;;;4.60;99.90;;;;;;4943650;28;20050;-75
2021/12/07 09:21:15;;;;;;;20.33;7.00;;;3.60;99.90;;;;;;4943803;29;20495;-74
2021/12/07 09:23:41;;;;;;;12.18;5.72;;;3.90;99.90;;;;;;4946540;28;20085;-75
2021/12/07 09:26:09;;;;;;;12.98;6.35;;;5.00;99.90;;;;;;4962324;28;20074;-73
2021/12/07 09:28:36;;;;;;;13.55;6.85;;;5.00;99.90;;;;;;4962555;28;20127;-74
2021/12/07 09:31:02;;;;;;;13.93;6.28;;;4.00;99.90;;;;;;4967682;28;20505;-73
2021/12/07 09:33:30;;;;;;;11.25;6.00;;;4.80;99.90;;;;;;4981633;28;20050;-74
2021/12/07 09:35:56;;;;;;;9.07;4.85;;;4.30;99.90;;;;;;4982125;28;20046;-73
2021/12/07 09:38:23;;;;;;;11.15;5.68;;;4.30;99.90;;;;;;4981677;28;20505;-73
2021/12/07 09:40:50;;;;;;;10.32;5.53;;;5.20;99.90;;;;;;4964733;28;20055;-73
2021/12/07 09:43:16;;;;;;;11.27;5.60;;;4.70;99.90;;;;;;4962646;28;20093;-74
2021/12/07 09:45:43;;;;;;;10.10;4.85;;;5.00;99.90;;;;;;4961447;28;20078;-72
2021/12/07 09:48:10;;;;;;;9.10;4.90;;;5.40;99.90;;;;;;4962084;28;20116;-73
2021/12/07 09:50:39;;;;;;;11.68;5.43;;;5.40;99.90;;;;;;4951814;28;20220;-73
2021/12/07 09:53:07;;;;;;;12.35;5.55;;;5.10;99.90;;;;;;4970298;28;20051;-73
2021/12/07 09:55:34;;;;;;;11.00;5.40;;;5.10;99.90;;;;;;4961229;28;20054;-73
2021/12/07 09:58:02;;;;;;;8.02;4.60;;;5.00;99.90;;;;;;4971304;28;20146;-73
2021/12/07 10:00:29;;;;;;;7.78;4.75;;;4.60;99.90;;;;;;4955612;28;20062;-73
2021/12/07 10:02:55;;;;;;;8.38;6.03;;;3.90;99.90;;;;;;4962520;28;20573;-75
2021/12/07 10:05:25;;;;;;;11.10;5.13;;;4.40;99.90;;;;;;4962494;28;20054;-74
2021/12/07 10:07:52;;;;;;;9.95;5.05;;;3.80;99.90;;;;;;4967064;28;20042;-72
2021/12/07 10:10:30;;;;;;;8.90;5.43;;;4.10;99.90;;;;;;4983232;28;20054;-72
2021/12/07 10:12:57;;;;;;;10.05;5.00;;;5.10;99.90;;;;;;4978555;28;20513;-71
2021/12/07 10:15:23;;;;;;;11.13;5.00;;;5.00;99.90;;;;;;4964726;28;20568;-72
2021/12/07 10:18:12;;;;;;;15.02;5.80;;;5.00;99.90;;;;;;4965428;28;20063;-71
2021/12/07 10:20:42;;;;;;;10.23;4.70;;;4.60;99.90;;;;;;4964718;28;20051;-71
2021/12/07 10:23:14;;;;;;;9.63;5.32;;;4.20;99.90;;;;;;4977280;28;20256;-71
2021/12/07 10:25:55;;;;;;;11.10;5.45;;;4.80;99.90;;;;;;4964405;28;20398;-73
2021/12/07 10:28:40;;;;;;;10.57;5.03;;;4.30;99.90;;;;;;4971881;28;20837;-72
2021/12/07 10:31:09;;;;;;;12.65;6.45;;;4.80;99.90;;;;;;4984265;28;20059;-73
2021/12/07 10:33:41;;;;;;;10.63;5.03;;;4.30;99.90;;;;;;4983676;28;20054;-73
2021/12/07 10:36:18;;;;;;;7.85;5.07;;;4.40;99.90;;;;;;4985992;28;20053;-72
2021/12/07 10:38:49;;;;;;;13.88;6.18;;;5.30;99.90;;;;;;4977967;28;20070;-73
2021/12/07 10:41:21;;;;;;;12.93;5.50;;;5.40;99.90;;;;;;4964943;28;20046;-73
2021/12/07 10:43:47;;;;;;;9.98;4.90;;;5.60;99.90;;;;;;4973943;28;20074;-76
2021/12/07 10:46:41;;;;;;;9.57;4.60;;;5.90;99.90;;;;;;4976985;28;20212;-74
2021/12/07 10:49:09;;;;;;;7.60;5.03;;;5.80;99.90;;;;;;4931594;28;20051;-73
2021/12/07 10:51:38;;;;;;;12.95;4.22;;;6.20;99.90;;;;;;4946181;28;20051;-74
2021/12/07 10:54:04;;;;;;;18.38;4.70;;;6.40;99.90;;;;;;4985908;28;20053;-73
2021/12/07 10:56:34;;;;;;;8.57;4.15;;;6.50;99.90;;;;;;4950709;28;20413;-75
2021/12/07 10:59:08;;;;;;;12.75;4.38;;;6.70;99.90;;;;;;4980163;28;20039;-74
2021/12/07 11:01:40;;;;;;;6.50;3.80;;;6.80;99.90;;;;;;4947998;28;20054;-75
2021/12/07 11:04:28;;;;;;;11.27;4.05;;;6.70;99.90;;;;;;4966037;28;20227;-73
2021/12/07 11:07:03;;;;;;;9.02;4.25;;;6.60;99.90;;;;;;4964790;28;20082;-73
2021/12/07 11:09:29;;;;;;;9.25;4.32;;;6.90;99.90;;;;;;4964902;28;20046;-75
2021/12/07 11:12:08;;;;;;;8.98;3.72;;;7.00;99.90;;;;;;4964791;28;20092;-74
2021/12/07 11:14:51;;;;;;;8.25;4.03;;;7.10;99.90;;;;;;4966872;28;20053;-73
2021/12/07 11:17:24;;;;;;;7.90;3.47;;;7.10;99.90;;;;;;4983698;28;20088;-73
2021/12/07 11:19:51;;;;;;;9.25;3.50;;;6.70;99.90;;;;;;4983421;28;20047;-73
2021/12/07 11:22:20;;;;;;;6.47;3.80;;;7.00;99.90;;;;;;4982933;28;20050;-73
2021/12/07 11:24:47;;;;;;;9.55;4.10;;;7.20;99.90;;;;;;4980701;28;20057;-72
2021/12/07 11:30:05;;;;;;;7.20;3.70;;;6.50;99.90;;;;;;4966853;28;20053;-72
2021/12/07 11:32:31;;;;;;;7.82;3.63;;;6.30;99.90;;;;;;4982419;28;20069;-73
2021/12/07 11:35:14;;;;;;;9.45;3.90;;;6.50;99.90;;;;;;4983600;28;20643;-74
2021/12/07 11:37:42;;;;;;;13.18;3.42;;;6.50;99.90;;;;;;4975300;28;20039;-71
2021/12/07 11:40:09;;;;;;;8.50;3.60;;;6.80;99.90;;;;;;4980718;28;20054;-73
2021/12/07 11:42:42;;;;;;;11.57;3.78;;;6.90;99.90;;;;;;4982884;28;20081;-74
2021/12/07 11:45:27;;;;;;;12.63;3.78;;;6.80;99.90;;;;;;4982538;28;20038;-73
2021/12/07 11:47:54;;;;;;;;;;;6.40;99.90;;;;;;4946600;28;20043;-72
2021/12/07 11:50:46;;;;;;;10.57;4.20;;;6.30;99.90;;;;;;4944527;28;20029;-74
2021/12/07 11:53:15;;;;;;;10.48;4.20;;;6.50;99.90;;;;;;4960942;28;20495;-73
2021/12/07 11:55:45;;;;;;;12.68;4.70;;;6.50;99.90;;;;;;4947073;28;20055;-74
2021/12/07 11:58:12;;;;;;;10.05;3.10;;;6.70;99.90;;;;;;4984229;28;20042;-73
2021/12/07 12:00:45;;;;;;;7.53;3.20;;;6.60;99.90;;;;;;4981212;28;20648;-72
2021/12/07 12:03:14;;;;;;;6.03;3.17;;;6.70;99.90;;;;;;4963770;28;20057;-75
2021/12/07 12:05:43;;;;;;;8.13;3.67;;;6.60;99.90;;;;;;4995415;28;20058;-75
2021/12/07 12:08:10;;;;;;;12.43;4.38;;;6.30;99.90;;;;;;5011497;28;20059;-72
2021/12/07 12:10:39;;;;;;;8.27;3.78;;;6.30;99.90;;;;;;5064756;28;20048;-73
2021/12/07 12:13:31;;;;;;;10.23;3.92;;;6.20;99.90;;;;;;4993653;28;20414;-73
2021/12/07 12:16:15;;;;;;;9.35;3.80;;;6.10;99.90;;;;;;4983028;28;20090;-72
2021/12/07 12:19:06;;;;;;;9.05;3.85;;;6.20;99.90;;;;;;4963367;28;20043;-74
2021/12/07 12:22:00;;;;;;;9.07;3.25;;;6.00;99.90;;;;;;4962827;28;20047;-72
2021/12/07 12:24:44;;;;;;;6.75;3.70;;;5.70;99.90;;;;;;4963273;28;20051;-72
2021/12/07 12:27:12;;;;;;;6.05;3.35;;;5.80;99.90;;;;;;4989336;28;20043;-72
2021/12/07 12:29:41;;;;;;;12.65;3.67;;;6.00;99.90;;;;;;4975949;28;20051;-74
2021/12/07 12:32:08;;;;;;;12.13;3.88;;;5.90;99.90;;;;;;4970014;28;20059;-72
2021/12/07 12:34:48;;;;;;;10.02;4.15;;;5.70;99.90;;;;;;4961999;28;20573;-72
2021/12/07 12:37:21;;;;;;;14.05;3.90;;;5.60;99.90;;;;;;4963773;28;20031;-73
2021/12/07 12:39:46;;;;;;;10.27;3.83;;;5.90;99.90;;;;;;4958431;28;20050;-73
2021/12/07 12:42:41;;;;;;;6.80;3.67;;;5.90;99.90;;;;;;4945163;28;20505;-72
2021/12/07 12:45:22;;;;;;;8.75;3.92;;;5.80;99.90;;;;;;4943859;28;20058;-72
2021/12/07 12:48:10;;;;;;;8.90;4.88;;;5.80;99.90;;;;;;4950481;28;20522;-73
2021/12/07 12:50:56;;;;;;;12.30;3.83;;;5.60;99.90;;;;;;4962604;28;20059;-73
2021/12/07 12:53:32;;;;;;;10.95;3.67;;;5.90;99.90;;;;;;4962898;28;20486;-73
2021/12/07 12:56:10;;;;;;;7.00;3.05;;;5.60;99.90;;;;;;4963221;28;20055;-74
2021/12/07 12:58:42;;;;;;;8.52;3.67;;;5.70;99.90;;;;;;4951082;28;20054;-75
2021/12/07 13:01:23;;;;;;;10.05;3.95;;;5.70;99.90;;;;;;4943480;28;20134;-74
2021/12/07 13:03:51;;;;;;;13.70;4.18;;;5.70;99.90;;;;;;4954188;28;20057;-74
2021/12/07 13:06:32;;;;;;;9.43;3.70;;;5.50;99.90;;;;;;4962704;28;20050;-74
2021/12/07 13:09:02;;;;;;;11.65;3.63;;;5.60;99.90;;;;;;4962420;28;20082;-74
2021/12/07 13:11:36;;;;;;;4.82;2.90;;;5.50;99.90;;;;;;4962483;28;20042;-74
2021/12/07 13:14:04;;;;;;;13.75;3.75;;;5.50;99.90;;;;;;4962375;28;20057;-73
2021/12/07 13:16:33;;;;;;;11.48;4.93;;;5.50;99.90;;;;;;4964270;28;20150;-72
2021/12/07 13:19:06;;;;;;;7.50;3.85;;;5.70;99.90;;;;;;4954196;28;20093;-74
2021/12/07 13:21:40;;;;;;;8.90;3.55;;;5.70;99.90;;;;;;4944720;29;20058;-75
2021/12/07 13:24:08;;;;;;;8.95;3.60;;;5.60;99.90;;;;;;4961321;28;20047;-73
2021/12/07 13:26:40;;;;;;;9.07;4.05;;;5.60;99.90;;;;;;4927920;29;20051;-75
2021/12/07 13:29:15;;;;;;;9.23;4.13;;;5.70;99.90;;;;;;4950679;28;20157;-76
2021/12/07 13:31:53;;;;;;;16.55;6.15;;;5.70;99.90;;;;;;4973069;28;20061;-76
2021/12/07 13:34:34;;;;;;;10.20;4.20;;;5.60;99.90;;;;;;4975717;28;20059;-75
2021/12/07 13:37:04;;;;;;;9.20;4.20;;;5.70;99.90;;;;;;4965063;28;20149;-76
2021/12/07 13:39:52;;;;;;;10.90;5.13;;;5.70;99.90;;;;;;4983043;28;20046;-75
2021/12/07 13:42:18;;;;;;;12.52;5.25;;;5.80;99.90;;;;;;4982675;28;20631;-77
2021/12/07 13:44:48;;;;;;;15.32;5.53;;;5.60;99.90;;;;;;4980765;28;20050;-75
2021/12/07 13:47:20;;;;;;;11.60;4.10;;;5.70;99.90;;;;;;4982573;28;20482;-77
2021/12/07 13:49:50;;;;;;;15.98;5.28;;;5.70;99.90;;;;;;4975946;28;20078;-76
2021/12/07 13:52:20;;;;;;;14.50;5.03;;;5.60;99.90;;;;;;4981961;28;20854;-78
2021/12/07 13:54:59;;;;;;;14.30;4.88;;;5.80;99.90;;;;;;4981227;28;20123;-74
2021/12/07 13:57:28;;;;;;;8.68;4.28;;;5.70;99.90;;;;;;4983658;28;20046;-74
2021/12/07 14:00:00;;;;;;;7.57;3.95;;;5.40;99.90;;;;;;4975879;28;20477;-74
2021/12/07 14:02:27;;;;;;;14.77;4.65;;;5.50;99.90;;;;;;4946576;28;20063;-75
2021/12/07 14:05:07;;;;;;;14.85;5.50;;;5.30;99.90;;;;;;4963620;28;20050;-75
2021/12/07 14:07:34;;;;;;;12.75;4.60;;;5.70;99.90;;;;;;4963065;28;20177;-73
2021/12/07 14:10:23;;;;;;;9.27;4.25;;;5.20;99.90;;;;;;4963451;28;20103;-74
2021/12/07 14:12:53;;;;;;;10.77;4.35;;;5.20;99.90;;;;;;4978987;28;20082;-73
2021/12/07 14:15:22;;;;;;;9.75;4.57;;;5.30;99.90;;;;;;4967340;28;20051;-73
2021/12/07 14:17:57;;;;;;;10.27;4.22;;;5.10;99.90;;;;;;4963901;28;20051;-73
2021/12/07 14:20:34;;;;;;;8.88;4.38;;;5.10;99.90;;;;;;4969144;28;20046;-75
2021/12/07 14:23:13;;;;;;;12.75;5.05;;;5.40;99.90;;;;;;4969784;28;20466;-73
2021/12/07 14:25:52;;;;;;;9.65;5.32;;;5.40;99.90;;;;;;4962853;28;20053;-72
2021/12/07 14:28:36;;;;;;;7.78;4.38;;;5.30;99.90;;;;;;4963250;28;20506;-73
2021/12/07 14:31:11;;;;;;;12.63;3.90;;;5.00;99.90;;;;;;4971613;28;20065;-73
2021/12/07 14:33:54;;;;;;;7.10;4.15;;;5.20;99.90;;;;;;4982232;28;20078;-75
2021/12/07 14:36:22;;;;;;;12.07;5.78;;;5.30;99.90;;;;;;4968746;28;20086;-77
2021/12/07 14:38:51;;;;;;;12.95;6.03;;;4.80;99.90;;;;;;4943657;28;20047;-76
2021/12/07 14:41:19;;;;;;;9.77;4.88;;;5.20;99.90;;;;;;4944003;28;20134;-73
2021/12/07 14:43:45;;;;;;;10.57;5.50;;;5.00;99.90;;;;;;4943330;28;20056;-75
2021/12/07 14:46:14;;;;;;;10.35;5.15;;;4.60;99.90;;;;;;4956157;28;20038;-73
2021/12/07 14:48:42;;;;;;;8.90;4.38;;;5.10;99.90;;;;;;4981874;28;20123;-75